CFG5KL EDDM-LIMC
Flight info
| Callsign | CFG5KL |
|---|---|
| Flight time | 0h 51m |
| Altitude | 24000 |
| Route | MERSI4E/08R MERSI Y100 ATMAX Z999 KPT/N0401F230 Z999 BEMKI L607 XEBIX Y740 NATAG DCT LORLO DCT ATPED DCT LUSIL DCT EVRIP |
| Aircraft | A321/M-SDE3FGHIRWY/LB1 |
Departure
| Time | 2026-05-01 12:02 |
|---|---|
| Airport | Munich Airport (EDDM) |
Arrival
| Time | 2026-05-01 12:53 |
|---|---|
| Airport | Milan Malpensa International Airport (LIMC) |
| Time | Latitude | Longitude | Altitude | Speed | Heading |
|---|---|---|---|---|---|
| 2026-05-01 10:37 | 48.35738 | 11.79239 | 1471 ft | 0 kts | 264° |
| 2026-05-01 11:36 | 48.35738 | 11.79241 | 1471 ft | 1 kts | 264° |
| 2026-05-01 11:37 | 48.35740 | 11.79265 | 1460 ft | 3 kts | 264° |
| 2026-05-01 11:37 | 48.35741 | 11.79286 | 1467 ft | 3 kts | 264° |
| 2026-05-01 11:37 | 48.35743 | 11.79316 | 1460 ft | 3 kts | 262° |
| 2026-05-01 11:37 | 48.35747 | 11.79345 | 1463 ft | 3 kts | 250° |
| 2026-05-01 11:38 | 48.35756 | 11.79372 | 1466 ft | 3 kts | 231° |
| 2026-05-01 11:38 | 48.35769 | 11.79391 | 1462 ft | 3 kts | 203° |
| 2026-05-01 11:38 | 48.35783 | 11.79397 | 1463 ft | 1 kts | 176° |
| 2026-05-01 11:38 | 48.35784 | 11.79397 | 1471 ft | 0 kts | 175° |
| 2026-05-01 11:44 | 48.35782 | 11.79398 | 1471 ft | 3 kts | 175° |
| 2026-05-01 11:44 | 48.35719 | 11.79446 | 1471 ft | 13 kts | 134° |
| 2026-05-01 11:44 | 48.35647 | 11.79541 | 1469 ft | 14 kts | 149° |
| 2026-05-01 11:45 | 48.35549 | 11.79571 | 1468 ft | 15 kts | 173° |
| 2026-05-01 11:45 | 48.35446 | 11.79589 | 1466 ft | 15 kts | 173° |
| 2026-05-01 11:45 | 48.35343 | 11.79607 | 1466 ft | 14 kts | 173° |
| 2026-05-01 11:45 | 48.35253 | 11.79623 | 1477 ft | 13 kts | 173° |
| 2026-05-01 11:46 | 48.35146 | 11.79644 | 1473 ft | 16 kts | 173° |
| 2026-05-01 11:46 | 48.35065 | 11.79657 | 1475 ft | 9 kts | 173° |
| 2026-05-01 11:46 | 48.35005 | 11.79645 | 1473 ft | 8 kts | 218° |
| 2026-05-01 11:46 | 48.34999 | 11.79633 | 1476 ft | 0 kts | 233° |
| 2026-05-01 11:47 | 48.34998 | 11.79631 | 1476 ft | 0 kts | 236° |
| 2026-05-01 11:47 | 48.34997 | 11.79629 | 1477 ft | 0 kts | 237° |
| 2026-05-01 11:47 | 48.34995 | 11.79624 | 1477 ft | 1 kts | 239° |
| 2026-05-01 11:47 | 48.34993 | 11.79617 | 1477 ft | 1 kts | 242° |
| 2026-05-01 11:48 | 48.34990 | 11.79606 | 1478 ft | 1 kts | 245° |
| 2026-05-01 11:48 | 48.34989 | 11.79602 | 1470 ft | 0 kts | 245° |
| 2026-05-01 11:48 | 48.34988 | 11.79601 | 1470 ft | 0 kts | 245° |
| 2026-05-01 11:48 | 48.34988 | 11.79599 | 1470 ft | 0 kts | 245° |
| 2026-05-01 11:49 | 48.34985 | 11.79591 | 1468 ft | 1 kts | 246° |
| 2026-05-01 11:49 | 48.34983 | 11.79585 | 1470 ft | 0 kts | 245° |
| 2026-05-01 11:51 | 48.34977 | 11.79571 | 1473 ft | 0 kts | 234° |
| 2026-05-01 11:51 | 48.34970 | 11.79561 | 1475 ft | 2 kts | 218° |
| 2026-05-01 11:51 | 48.34952 | 11.79552 | 1471 ft | 7 kts | 192° |
| 2026-05-01 11:51 | 48.34824 | 11.79554 | 1476 ft | 17 kts | 193° |
| 2026-05-01 11:52 | 48.34779 | 11.79408 | 1477 ft | 16 kts | 264° |
| 2026-05-01 11:52 | 48.34769 | 11.79245 | 1478 ft | 15 kts | 264° |
| 2026-05-01 11:52 | 48.34755 | 11.79088 | 1482 ft | 15 kts | 262° |
| 2026-05-01 11:52 | 48.34745 | 11.78932 | 1483 ft | 15 kts | 265° |
| 2026-05-01 11:53 | 48.34731 | 11.78768 | 1481 ft | 20 kts | 263° |
| 2026-05-01 11:53 | 48.34712 | 11.78501 | 1481 ft | 27 kts | 263° |
| 2026-05-01 11:53 | 48.34690 | 11.78220 | 1482 ft | 27 kts | 263° |
| 2026-05-01 11:53 | 48.34667 | 11.77942 | 1486 ft | 25 kts | 264° |
| 2026-05-01 11:54 | 48.34649 | 11.77704 | 1481 ft | 23 kts | 263° |
| 2026-05-01 11:54 | 48.34627 | 11.77445 | 1487 ft | 25 kts | 262° |
| 2026-05-01 11:54 | 48.34610 | 11.77187 | 1484 ft | 25 kts | 265° |
| 2026-05-01 11:54 | 48.34589 | 11.76918 | 1489 ft | 27 kts | 264° |
| 2026-05-01 11:55 | 48.34566 | 11.76633 | 1477 ft | 28 kts | 263° |
| 2026-05-01 11:55 | 48.34545 | 11.76343 | 1485 ft | 28 kts | 265° |
| 2026-05-01 11:55 | 48.34523 | 11.76051 | 1491 ft | 28 kts | 262° |
| 2026-05-01 11:55 | 48.34500 | 11.75762 | 1492 ft | 27 kts | 263° |
| 2026-05-01 11:56 | 48.34478 | 11.75494 | 1488 ft | 24 kts | 263° |
| 2026-05-01 11:56 | 48.34462 | 11.75291 | 1490 ft | 18 kts | 263° |
| 2026-05-01 11:56 | 48.34391 | 11.75229 | 1486 ft | 15 kts | 179° |
| 2026-05-01 11:56 | 48.34298 | 11.75237 | 1487 ft | 12 kts | 173° |
| 2026-05-01 11:57 | 48.34280 | 11.75240 | 1494 ft | 0 kts | 174° |
| 2026-05-01 11:58 | 48.34276 | 11.75241 | 1491 ft | 2 kts | 174° |
| 2026-05-01 11:58 | 48.34236 | 11.75247 | 1490 ft | 7 kts | 174° |
| 2026-05-01 11:58 | 48.34190 | 11.75256 | 1488 ft | 4 kts | 172° |
| 2026-05-01 11:59 | 48.34150 | 11.75264 | 1483 ft | 6 kts | 172° |
| 2026-05-01 11:59 | 48.34109 | 11.75284 | 1496 ft | 6 kts | 143° |
| 2026-05-01 11:59 | 48.34087 | 11.75345 | 1496 ft | 7 kts | 100° |
| 2026-05-01 12:00 | 48.34087 | 11.75392 | 1496 ft | 0 kts | 86° |
| 2026-05-01 12:01 | 48.34091 | 11.75450 | 1487 ft | 27 kts | 84° |
| 2026-05-01 12:01 | 48.34152 | 11.76234 | 1485 ft | 118 kts | 83° |
| 2026-05-01 12:01 | 48.34272 | 11.77792 | 1610 ft | 169 kts | 84° |
| 2026-05-01 12:02 | 48.34399 | 11.79540 | 2530 ft | 168 kts | 84° |
| 2026-05-01 12:02 | 48.34524 | 11.81307 | 3366 ft | 178 kts | 84° |
| 2026-05-01 12:02 | 48.34680 | 11.83290 | 3775 ft | 208 kts | 84° |
| 2026-05-01 12:02 | 48.34863 | 11.85553 | 4429 ft | 232 kts | 85° |
| 2026-05-01 12:03 | 48.35038 | 11.87952 | 5796 ft | 231 kts | 85° |
| 2026-05-01 12:03 | 48.35225 | 11.90347 | 7154 ft | 230 kts | 82° |
| 2026-05-01 12:03 | 48.35652 | 11.92641 | 8452 ft | 228 kts | 66° |
| 2026-05-01 12:03 | 48.36644 | 11.94469 | 9774 ft | 227 kts | 35° |
| 2026-05-01 12:04 | 48.37989 | 11.95906 | 10156 ft | 248 kts | 53° |
| 2026-05-01 12:04 | 48.38594 | 11.98280 | 10149 ft | 248 kts | 88° |
| 2026-05-01 12:04 | 48.38096 | 12.00753 | 10154 ft | 254 kts | 124° |
| 2026-05-01 12:04 | 48.36626 | 12.02266 | 10570 ft | 270 kts | 161° |
| 2026-05-01 12:05 | 48.34674 | 12.02547 | 11306 ft | 296 kts | 185° |
| 2026-05-01 12:05 | 48.32985 | 12.01646 | 12057 ft | 311 kts | 211° |
| 2026-05-01 12:05 | 48.31467 | 11.99312 | 13030 ft | 320 kts | 239° |
| 2026-05-01 12:06 | 48.30419 | 11.96339 | 14094 ft | 325 kts | 244° |
| 2026-05-01 12:06 | 48.29386 | 11.93292 | 15030 ft | 329 kts | 244° |
| 2026-05-01 12:06 | 48.28338 | 11.90198 | 15958 ft | 334 kts | 244° |
| 2026-05-01 12:06 | 48.27279 | 11.87084 | 16883 ft | 339 kts | 243° |
| 2026-05-01 12:07 | 48.26190 | 11.83904 | 17802 ft | 344 kts | 243° |
| 2026-05-01 12:07 | 48.25081 | 11.80685 | 18705 ft | 350 kts | 243° |
| 2026-05-01 12:07 | 48.23952 | 11.77429 | 19498 ft | 355 kts | 243° |
| 2026-05-01 12:07 | 48.22801 | 11.74126 | 20315 ft | 359 kts | 243° |
| 2026-05-01 12:08 | 48.21638 | 11.70790 | 21135 ft | 363 kts | 243° |
| 2026-05-01 12:08 | 48.20463 | 11.67416 | 21968 ft | 367 kts | 243° |
| 2026-05-01 12:08 | 48.19274 | 11.64001 | 22793 ft | 371 kts | 244° |
| 2026-05-01 12:08 | 48.18073 | 11.60556 | 23621 ft | 376 kts | 244° |
| 2026-05-01 12:09 | 48.16856 | 11.57065 | 24135 ft | 380 kts | 244° |
| 2026-05-01 12:09 | 48.15626 | 11.53544 | 24305 ft | 380 kts | 244° |
| 2026-05-01 12:09 | 48.14385 | 11.50004 | 24354 ft | 401 kts | 244° |
| 2026-05-01 12:09 | 48.13335 | 11.47003 | 24357 ft | 418 kts | 244° |
| 2026-05-01 12:10 | 48.12394 | 11.44311 | 24354 ft | 432 kts | 244° |
| 2026-05-01 12:10 | 48.09464 | 11.35972 | 24356 ft | 462 kts | 243° |
| 2026-05-01 12:10 | 48.07979 | 11.31762 | 24357 ft | 465 kts | 243° |
| 2026-05-01 12:11 | 48.04505 | 11.23633 | 24355 ft | 467 kts | 225° |
| 2026-05-01 12:11 | 48.01948 | 11.20650 | 24354 ft | 467 kts | 210° |
| 2026-05-01 12:11 | 47.99053 | 11.18471 | 24357 ft | 467 kts | 205° |
| 2026-05-01 12:12 | 47.96125 | 11.16369 | 24350 ft | 467 kts | 205° |
| 2026-05-01 12:12 | 47.93203 | 11.14286 | 24348 ft | 467 kts | 205° |
| 2026-05-01 12:12 | 47.90265 | 11.12198 | 24353 ft | 467 kts | 205° |
| 2026-05-01 12:12 | 47.87336 | 11.10120 | 24348 ft | 467 kts | 205° |
| 2026-05-01 12:13 | 47.84396 | 11.08030 | 24352 ft | 467 kts | 205° |
| 2026-05-01 12:13 | 47.81936 | 11.06278 | 24354 ft | 467 kts | 205° |
| 2026-05-01 12:13 | 47.79013 | 11.04195 | 24355 ft | 467 kts | 205° |
| 2026-05-01 12:13 | 47.76083 | 11.02111 | 24350 ft | 466 kts | 205° |
| 2026-05-01 12:14 | 47.73159 | 11.00035 | 24354 ft | 467 kts | 205° |
| 2026-05-01 12:14 | 47.70226 | 10.97954 | 24349 ft | 466 kts | 205° |
| 2026-05-01 12:14 | 47.67300 | 10.95883 | 24346 ft | 466 kts | 205° |
| 2026-05-01 12:14 | 47.64374 | 10.93811 | 24341 ft | 466 kts | 205° |
| 2026-05-01 12:15 | 47.61485 | 10.91765 | 24335 ft | 466 kts | 205° |
| 2026-05-01 12:15 | 47.58565 | 10.89702 | 24326 ft | 466 kts | 205° |
| 2026-05-01 12:15 | 47.55634 | 10.87638 | 24325 ft | 466 kts | 205° |
| 2026-05-01 12:15 | 47.52703 | 10.85579 | 24309 ft | 466 kts | 205° |
| 2026-05-01 12:16 | 47.49781 | 10.83525 | 24298 ft | 465 kts | 205° |
| 2026-05-01 12:16 | 47.46862 | 10.81473 | 24294 ft | 465 kts | 205° |
| 2026-05-01 12:16 | 47.43932 | 10.79422 | 24294 ft | 465 kts | 205° |
| 2026-05-01 12:16 | 47.41004 | 10.77377 | 24296 ft | 465 kts | 205° |
| 2026-05-01 12:17 | 47.38081 | 10.75338 | 24293 ft | 466 kts | 205° |
| 2026-05-01 12:17 | 47.35145 | 10.73290 | 24290 ft | 466 kts | 205° |
| 2026-05-01 12:17 | 47.32222 | 10.71253 | 24287 ft | 465 kts | 205° |
| 2026-05-01 12:17 | 47.29287 | 10.69210 | 24288 ft | 466 kts | 205° |
| 2026-05-01 12:18 | 47.26360 | 10.67171 | 24284 ft | 466 kts | 205° |
| 2026-05-01 12:18 | 47.23435 | 10.65137 | 24286 ft | 465 kts | 205° |
| 2026-05-01 12:18 | 47.20502 | 10.63101 | 24286 ft | 465 kts | 205° |
| 2026-05-01 12:18 | 47.17576 | 10.61070 | 24281 ft | 465 kts | 205° |
| 2026-05-01 12:19 | 47.14653 | 10.59042 | 24283 ft | 466 kts | 205° |
| 2026-05-01 12:19 | 47.11711 | 10.57047 | 24283 ft | 466 kts | 202° |
| 2026-05-01 12:19 | 47.08624 | 10.55601 | 24286 ft | 465 kts | 192° |
| 2026-05-01 12:19 | 47.05426 | 10.54928 | 24289 ft | 464 kts | 182° |
| 2026-05-01 12:20 | 47.02208 | 10.55038 | 24273 ft | 462 kts | 172° |
| 2026-05-01 12:20 | 46.99054 | 10.55914 | 24300 ft | 464 kts | 162° |
| 2026-05-01 12:20 | 46.95959 | 10.57312 | 24309 ft | 466 kts | 161° |
| 2026-05-01 12:20 | 46.92855 | 10.58723 | 24311 ft | 470 kts | 161° |
| 2026-05-01 12:21 | 46.89699 | 10.60144 | 24311 ft | 481 kts | 161° |
| 2026-05-01 12:21 | 46.86459 | 10.61597 | 24307 ft | 490 kts | 161° |
| 2026-05-01 12:21 | 46.83185 | 10.63066 | 24314 ft | 493 kts | 161° |
| 2026-05-01 12:21 | 46.79907 | 10.64544 | 24313 ft | 494 kts | 161° |
| 2026-05-01 12:22 | 46.76592 | 10.65905 | 24317 ft | 496 kts | 166° |
| 2026-05-01 12:22 | 46.74335 | 10.66411 | 24320 ft | 498 kts | 173° |
| 2026-05-01 12:22 | 46.69693 | 10.66298 | 24317 ft | 501 kts | 186° |
| 2026-05-01 12:22 | 46.66329 | 10.65236 | 24320 ft | 502 kts | 196° |
| 2026-05-01 12:23 | 46.62992 | 10.63744 | 24316 ft | 501 kts | 197° |
| 2026-05-01 12:23 | 46.59659 | 10.62264 | 24318 ft | 502 kts | 196° |
| 2026-05-01 12:23 | 46.56312 | 10.60791 | 24315 ft | 502 kts | 196° |
| 2026-05-01 12:23 | 46.52966 | 10.59328 | 24307 ft | 502 kts | 196° |
| 2026-05-01 12:24 | 46.49621 | 10.57870 | 24311 ft | 502 kts | 196° |
| 2026-05-01 12:24 | 46.46277 | 10.56413 | 24308 ft | 502 kts | 196° |
| 2026-05-01 12:24 | 46.42934 | 10.54958 | 24310 ft | 502 kts | 196° |
| 2026-05-01 12:24 | 46.40671 | 10.53977 | 24310 ft | 502 kts | 196° |
| 2026-05-01 12:25 | 46.37319 | 10.52524 | 24309 ft | 502 kts | 196° |
| 2026-05-01 12:25 | 46.30623 | 10.49620 | 24312 ft | 503 kts | 196° |
| 2026-05-01 12:25 | 46.27272 | 10.48166 | 24312 ft | 503 kts | 196° |
| 2026-05-01 12:26 | 46.23911 | 10.46708 | 24316 ft | 504 kts | 197° |
| 2026-05-01 12:26 | 46.17671 | 10.42351 | 24315 ft | 503 kts | 217° |
| 2026-05-01 12:26 | 46.15033 | 10.39071 | 24316 ft | 502 kts | 227° |
| 2026-05-01 12:27 | 46.12815 | 10.35234 | 24684 ft | 491 kts | 234° |
| 2026-05-01 12:27 | 46.09538 | 10.26740 | 25499 ft | 482 kts | 246° |
| 2026-05-01 12:28 | 46.06575 | 10.18043 | 23600 ft | 482 kts | 245° |
| 2026-05-01 12:28 | 46.05078 | 10.13749 | 22687 ft | 478 kts | 245° |
| 2026-05-01 12:28 | 46.02133 | 10.05316 | 21042 ft | 466 kts | 245° |
| 2026-05-01 12:29 | 46.00718 | 10.01138 | 20236 ft | 461 kts | 245° |
| 2026-05-01 12:29 | 45.99337 | 9.97005 | 19448 ft | 457 kts | 245° |
| 2026-05-01 12:29 | 45.96616 | 9.88838 | 17896 ft | 448 kts | 245° |
| 2026-05-01 12:30 | 45.93939 | 9.80880 | 16300 ft | 437 kts | 245° |
| 2026-05-01 12:30 | 45.92616 | 9.76977 | 15489 ft | 431 kts | 244° |
| 2026-05-01 12:30 | 45.91308 | 9.73136 | 14735 ft | 426 kts | 244° |
| 2026-05-01 12:31 | 45.90015 | 9.69352 | 13921 ft | 421 kts | 244° |
| 2026-05-01 12:31 | 45.88729 | 9.65596 | 13520 ft | 419 kts | 244° |
| 2026-05-01 12:31 | 45.87445 | 9.61846 | 13352 ft | 418 kts | 244° |
| 2026-05-01 12:31 | 45.86176 | 9.58131 | 13371 ft | 405 kts | 244° |
| 2026-05-01 12:32 | 45.84975 | 9.54615 | 13382 ft | 382 kts | 244° |
| 2026-05-01 12:32 | 45.82595 | 9.47642 | 13384 ft | 399 kts | 244° |
| 2026-05-01 12:32 | 45.81366 | 9.44057 | 13385 ft | 400 kts | 244° |
| 2026-05-01 12:33 | 45.80133 | 9.40485 | 13387 ft | 400 kts | 244° |
| 2026-05-01 12:33 | 45.78896 | 9.36909 | 13322 ft | 400 kts | 244° |
| 2026-05-01 12:33 | 45.77663 | 9.33339 | 13324 ft | 397 kts | 244° |
| 2026-05-01 12:33 | 45.76469 | 9.29889 | 13324 ft | 380 kts | 244° |
| 2026-05-01 12:34 | 45.75302 | 9.26520 | 13329 ft | 375 kts | 244° |
| 2026-05-01 12:34 | 45.74174 | 9.23265 | 13333 ft | 355 kts | 244° |
| 2026-05-01 12:34 | 45.73103 | 9.20171 | 13242 ft | 339 kts | 244° |
| 2026-05-01 12:34 | 45.72072 | 9.17213 | 13154 ft | 326 kts | 243° |
| 2026-05-01 12:35 | 45.70787 | 9.14625 | 12971 ft | 315 kts | 224° |
| 2026-05-01 12:35 | 45.69030 | 9.12839 | 12640 ft | 309 kts | 203° |
| 2026-05-01 12:35 | 45.67016 | 9.11848 | 12253 ft | 305 kts | 195° |
| 2026-05-01 12:35 | 45.64991 | 9.10972 | 11867 ft | 303 kts | 195° |
| 2026-05-01 12:36 | 45.62979 | 9.10107 | 11480 ft | 301 kts | 195° |
| 2026-05-01 12:36 | 45.60980 | 9.09246 | 11116 ft | 299 kts | 195° |
| 2026-05-01 12:36 | 45.59003 | 9.08391 | 10752 ft | 296 kts | 195° |
| 2026-05-01 12:36 | 45.57035 | 9.07537 | 10388 ft | 294 kts | 196° |
| 2026-05-01 12:37 | 45.55090 | 9.06692 | 9986 ft | 292 kts | 195° |
| 2026-05-01 12:37 | 45.53149 | 9.05849 | 9581 ft | 290 kts | 195° |
| 2026-05-01 12:37 | 45.51232 | 9.05018 | 9154 ft | 288 kts | 195° |
| 2026-05-01 12:37 | 45.49342 | 9.04198 | 8737 ft | 286 kts | 195° |
| 2026-05-01 12:38 | 45.47425 | 9.03368 | 8361 ft | 284 kts | 195° |
| 2026-05-01 12:38 | 45.45544 | 9.02555 | 7973 ft | 281 kts | 195° |
| 2026-05-01 12:38 | 45.43680 | 9.01750 | 7707 ft | 275 kts | 195° |
| 2026-05-01 12:38 | 45.41887 | 9.00977 | 7582 ft | 263 kts | 195° |
| 2026-05-01 12:39 | 45.40170 | 9.00235 | 7456 ft | 253 kts | 195° |
| 2026-05-01 12:39 | 45.38531 | 8.99531 | 7293 ft | 246 kts | 195° |
| 2026-05-01 12:39 | 45.36899 | 8.98833 | 7002 ft | 244 kts | 195° |
| 2026-05-01 12:39 | 45.35283 | 8.98142 | 6690 ft | 242 kts | 195° |
| 2026-05-01 12:40 | 45.33672 | 8.97449 | 6350 ft | 242 kts | 195° |
| 2026-05-01 12:40 | 45.32063 | 8.96755 | 6054 ft | 240 kts | 195° |
| 2026-05-01 12:40 | 45.30430 | 8.96366 | 5982 ft | 238 kts | 178° |
| 2026-05-01 12:40 | 45.28808 | 8.96633 | 5982 ft | 231 kts | 166° |
| 2026-05-01 12:41 | 45.27239 | 8.97069 | 6003 ft | 229 kts | 167° |
| 2026-05-01 12:41 | 45.25679 | 8.97494 | 6005 ft | 228 kts | 167° |
| 2026-05-01 12:41 | 45.24120 | 8.97915 | 6011 ft | 228 kts | 167° |
| 2026-05-01 12:41 | 45.22565 | 8.98334 | 5905 ft | 227 kts | 167° |
| 2026-05-01 12:42 | 45.21003 | 8.98611 | 5672 ft | 228 kts | 184° |
| 2026-05-01 12:42 | 45.19531 | 8.97829 | 5411 ft | 230 kts | 218° |
| 2026-05-01 12:42 | 45.18581 | 8.96038 | 5132 ft | 229 kts | 247° |
| 2026-05-01 12:42 | 45.18037 | 8.93910 | 4872 ft | 230 kts | 253° |
| 2026-05-01 12:43 | 45.17558 | 8.91747 | 4642 ft | 230 kts | 253° |
| 2026-05-01 12:43 | 45.17273 | 8.89534 | 4409 ft | 227 kts | 276° |
| 2026-05-01 12:43 | 45.17806 | 8.87481 | 4172 ft | 222 kts | 311° |
| 2026-05-01 12:43 | 45.18900 | 8.85968 | 4036 ft | 221 kts | 322° |
| 2026-05-01 12:44 | 45.20169 | 8.84754 | 4009 ft | 220 kts | 341° |
| 2026-05-01 12:44 | 45.21651 | 8.84263 | 4007 ft | 220 kts | 351° |
| 2026-05-01 12:44 | 45.24647 | 8.83291 | 3971 ft | 221 kts | 351° |
| 2026-05-01 12:45 | 45.27684 | 8.83035 | 3972 ft | 215 kts | 352° |
| 2026-05-01 12:45 | 45.29101 | 8.82664 | 3981 ft | 201 kts | 350° |
| 2026-05-01 12:45 | 45.30474 | 8.82286 | 3970 ft | 200 kts | 351° |
| 2026-05-01 12:46 | 45.31833 | 8.81914 | 3963 ft | 199 kts | 351° |
| 2026-05-01 12:46 | 45.33193 | 8.81542 | 3957 ft | 199 kts | 351° |
| 2026-05-01 12:46 | 45.34553 | 8.81170 | 3961 ft | 199 kts | 351° |
| 2026-05-01 12:46 | 45.35912 | 8.80799 | 3960 ft | 199 kts | 350° |
| 2026-05-01 12:47 | 45.37276 | 8.80426 | 3970 ft | 200 kts | 350° |
| 2026-05-01 12:47 | 45.38640 | 8.80052 | 3966 ft | 199 kts | 351° |
| 2026-05-01 12:47 | 45.39996 | 8.79681 | 3953 ft | 198 kts | 350° |
| 2026-05-01 12:47 | 45.41350 | 8.79310 | 3964 ft | 195 kts | 350° |
| 2026-05-01 12:48 | 45.42656 | 8.78952 | 3968 ft | 189 kts | 350° |
| 2026-05-01 12:48 | 45.43946 | 8.78599 | 4019 ft | 189 kts | 350° |
| 2026-05-01 12:48 | 45.45239 | 8.78244 | 3938 ft | 189 kts | 350° |
| 2026-05-01 12:48 | 45.46529 | 8.77890 | 3731 ft | 189 kts | 349° |
| 2026-05-01 12:49 | 45.47815 | 8.77537 | 3492 ft | 185 kts | 349° |
| 2026-05-01 12:49 | 45.49025 | 8.77205 | 3250 ft | 170 kts | 349° |
| 2026-05-01 12:49 | 45.50143 | 8.76897 | 3042 ft | 164 kts | 349° |
| 2026-05-01 12:49 | 45.51241 | 8.76596 | 2808 ft | 156 kts | 349° |
| 2026-05-01 12:50 | 45.52273 | 8.76312 | 2608 ft | 147 kts | 350° |
| 2026-05-01 12:50 | 45.53270 | 8.76038 | 2426 ft | 145 kts | 349° |
| 2026-05-01 12:50 | 45.54255 | 8.75772 | 2214 ft | 143 kts | 351° |
| 2026-05-01 12:50 | 45.55233 | 8.75536 | 2023 ft | 142 kts | 349° |
| 2026-05-01 12:51 | 45.56200 | 8.75269 | 1858 ft | 143 kts | 349° |
| 2026-05-01 12:51 | 45.57169 | 8.74991 | 1643 ft | 141 kts | 350° |
| 2026-05-01 12:51 | 45.59081 | 8.74442 | 1283 ft | 139 kts | 349° |
| 2026-05-01 12:52 | 45.60021 | 8.74183 | 1084 ft | 137 kts | 349° |
| 2026-05-01 12:52 | 45.61856 | 8.73674 | 734 ft | 131 kts | 348° |
| 2026-05-01 12:52 | 45.62649 | 8.73459 | 726 ft | 89 kts | 349° |
| 2026-05-01 12:53 | 45.63231 | 8.73134 | 735 ft | 50 kts | 311° |
| 2026-05-01 12:53 | 45.63371 | 8.72836 | 740 ft | 16 kts | 301° |
| 2026-05-01 12:53 | 45.63407 | 8.72656 | 744 ft | 21 kts | 271° |
| 2026-05-01 12:54 | 45.63387 | 8.72449 | 744 ft | 23 kts | 259° |
| 2026-05-01 12:54 | 45.63317 | 8.71937 | 747 ft | 26 kts | 260° |
| 2026-05-01 12:54 | 45.63289 | 8.71733 | 746 ft | 15 kts | 258° |
| 2026-05-01 12:55 | 45.63103 | 8.71705 | 743 ft | 16 kts | 168° |
| 2026-05-01 12:55 | 45.62973 | 8.71743 | 740 ft | 25 kts | 168° |
| 2026-05-01 12:55 | 45.62775 | 8.71801 | 736 ft | 31 kts | 168° |
| 2026-05-01 12:56 | 45.62646 | 8.71769 | 733 ft | 16 kts | 246° |
| 2026-05-01 12:56 | 45.62631 | 8.71676 | 733 ft | 7 kts | 261° |
| 2026-05-01 12:56 | 45.62626 | 8.71612 | 733 ft | 6 kts | 278° |
| 2026-05-01 12:56 | 45.62659 | 8.71569 | 733 ft | 8 kts | 337° |
| 2026-05-01 12:57 | 45.62689 | 8.71556 | 734 ft | 0 kts | 343° |
| 2026-05-01 12:57 | 45.62694 | 8.71554 | 734 ft | 0 kts | 343° |